Time;durP1;ratioP1;P1;durP2;ratioP2;P2;SDS_P1;SDS_P2;PMS_P1;PMS_P2;Temp;Humidity;BMP_temperature;BMP_pressure;BME280_temperature;BME280_humidity;BME280_pressure;Samples;Min_cycle;Max_cycle;Signal;HPM_P1;HPM_P2
2022/06/20 00:01:07;;;;;;;4.15;1.90;;;;;;;16.51;61.66;98767.63;5029927;28;20060;-61
2022/06/20 00:03:39;;;;;;;3.30;2.03;;;;;;;16.71;61.37;98792.19;5031000;28;20441;-62
2022/06/20 00:06:05;;;;;;;4.88;1.73;;;;;;;16.64;61.35;98781.31;5031309;28;20421;-63
2022/06/20 00:08:31;;;;;;;4.63;1.70;;;;;;;16.60;60.68;98785.41;5031283;28;20040;-62
2022/06/20 00:10:56;;;;;;;2.05;1.55;;;;;;;16.57;61.17;98798.47;5030310;28;20068;-62
2022/06/20 00:13:31;;;;;;;3.00;1.83;;;;;;;16.62;60.27;98796.88;5030380;28;20036;-62
2022/06/20 00:16:00;;;;;;;5.00;1.63;;;;;;;16.19;60.17;98743.56;5031218;28;20040;-61
2022/06/20 00:18:27;;;;;;;4.20;1.60;;;;;;;16.48;60.38;98801.28;5029296;28;20442;-61
2022/06/20 00:20:53;;;;;;;2.65;1.67;;;;;;;16.47;60.04;98793.34;5030784;28;20053;-62
2022/06/20 00:23:18;;;;;;;3.55;1.30;;;;;;;16.45;59.40;98803.50;5031604;28;20033;-63
2022/06/20 00:25:45;;;;;;;2.83;1.67;;;;;;;16.27;59.71;98768.78;5031072;28;20083;-62
2022/06/20 00:28:12;;;;;;;2.22;1.75;;;;;;;16.39;59.65;98790.75;5030166;28;20458;-62
2022/06/20 00:30:37;;;;;;;1.67;1.30;;;;;;;16.39;59.25;98790.75;5029733;28;20053;-63
2022/06/20 00:33:04;;;;;;;2.67;1.60;;;;;;;16.36;59.47;98786.53;5031096;28;20064;-66
2022/06/20 00:35:32;;;;;;;2.60;1.30;;;;;;;16.34;59.30;98785.91;5030613;28;20417;-61
2022/06/20 00:37:58;;;;;;;2.55;1.30;;;;;;;16.34;59.02;98777.78;5030786;28;20076;-63
2022/06/20 00:40:35;;;;;;;3.47;1.42;;;;;;;16.40;58.92;98768.97;5030232;28;20021;-64
2022/06/20 00:43:01;;;;;;;4.38;1.50;;;;;;;16.32;59.07;98756.38;5030843;28;20117;-62
2022/06/20 00:45:47;;;;;;;3.97;1.80;;;;;;;16.17;59.43;98726.69;5030150;28;20107;-62
2022/06/20 00:48:41;;;;;;;2.95;2.20;;;;;;;16.36;59.10;98762.22;5030814;28;20052;-62
2022/06/20 00:51:42;;;;;;;2.88;1.70;;;;;;;16.16;58.91;98737.66;5011174;28;20098;-61
2022/06/20 00:54:36;;;;;;;1.42;1.33;;;;;;;16.34;59.06;98788.59;5010913;28;20154;-61
2022/06/20 00:57:35;;;;;;;2.75;1.40;;;;;;;16.31;59.33;98770.06;5010921;28;20056;-61
2022/06/20 01:00:25;;;;;;;5.57;1.88;;;;;;;16.30;60.18;98792.69;5010651;28;20172;-62
2022/06/20 01:03:38;;;;;;;4.43;1.58;;;;;;;16.41;60.04;98810.31;5020603;28;20170;-62
2022/06/20 01:06:31;;;;;;;3.58;1.50;;;;;;;16.35;60.23;98814.59;5030869;28;20063;-62
2022/06/20 01:09:18;;;;;;;6.25;1.73;;;;;;;16.25;61.65;98816.75;5030425;28;20527;-62
2022/06/20 01:12:03;;;;;;;4.82;1.65;;;;;;;16.21;62.06;98818.97;5030861;28;20052;-63
2022/06/20 01:14:47;;;;;;;2.50;1.60;;;;;;;16.20;62.43;98811.88;5029492;28;20052;-63
2022/06/20 01:17:36;;;;;;;3.00;1.52;;;;;;;16.20;62.25;98815.44;5030491;28;20409;-62
2022/06/20 01:20:26;;;;;;;6.47;1.73;;;;;;;16.15;62.51;98808.91;5030487;28;20095;-62
2022/06/20 01:23:30;;;;;;;4.90;1.80;;;;;;;16.18;62.33;98795.03;5030473;28;20389;-61
2022/06/20 01:26:33;;;;;;;4.25;2.05;;;;;;;16.16;62.98;98797.06;5029944;28;20060;-61
2022/06/20 01:29:18;;;;;;;4.50;1.67;;;;;;;16.00;63.20;98803.50;5030915;28;20103;-61
2022/06/20 01:32:04;;;;;;;1.85;1.27;;;;;;;15.88;63.08;98801.22;5030552;28;20358;-63
2022/06/20 01:34:48;;;;;;;2.22;1.60;;;;;;;15.88;63.68;98800.38;5029011;28;20144;-62
2022/06/20 01:37:37;;;;;;;2.03;1.60;;;;;;;15.92;63.83;98820.59;5030852;28;20037;-62
2022/06/20 01:40:21;;;;;;;4.03;1.80;;;;;;;15.87;64.41;98809.50;5032856;28;20098;-61
2022/06/20 01:43:07;;;;;;;3.05;1.80;;;;;;;15.90;64.71;98809.97;5034325;28;20103;-62
2022/06/20 01:46:00;;;;;;;4.32;1.85;;;;;;;15.89;64.72;98802.91;5034113;28;20337;-62
2022/06/20 01:48:50;;;;;;;2.40;1.73;;;;;;;15.91;65.04;98803.59;5034593;28;20131;-61
2022/06/20 01:51:50;;;;;;;2.67;1.85;;;;;;;15.95;64.56;98801.34;5033947;28;20032;-61
2022/06/20 01:54:42;;;;;;;3.75;1.80;;;;;;;15.87;65.21;98799.53;5033996;28;20095;-62
2022/06/20 01:57:30;;;;;;;2.72;1.63;;;;;;;15.85;65.12;98785.38;5034223;28;20103;-62
2022/06/20 02:00:23;;;;;;;3.38;1.48;;;;;;;15.90;65.23;98772.19;5034204;28;20110;-62
2022/06/20 02:03:12;;;;;;;4.43;1.98;;;;;;;15.84;65.56;98772.91;5034217;28;20083;-62
2022/06/20 02:05:56;;;;;;;2.20;1.83;;;;;;;15.78;66.04;98771.78;5033797;28;20041;-62
2022/06/20 02:08:43;;;;;;;3.78;1.80;;;;;;;15.81;66.25;98784.06;5034247;28;20052;-62
2022/06/20 02:11:37;;;;;;;4.43;1.48;;;;;;;15.91;66.45;98794.63;5033819;28;20091;-63
2022/06/20 02:14:25;;;;;;;2.53;1.65;;;;;;;15.85;66.24;98796.16;5033021;28;20071;-61
2022/06/20 02:17:14;;;;;;;2.67;1.90;;;;;;;15.84;66.07;98785.56;5033832;28;20036;-70
2022/06/20 02:20:02;;;;;;;4.72;1.80;;;;;;;15.79;66.11;98803.16;5034012;28;20179;-62
2022/06/20 02:22:49;;;;;;;2.83;1.70;;;;;;;15.77;66.77;98820.53;5032815;28;20092;-61
2022/06/20 02:25:34;;;;;;;3.22;1.55;;;;;;;15.78;66.58;98823.03;5033279;28;20041;-62
2022/06/20 02:28:29;;;;;;;1.88;1.77;;;;;;;15.75;66.62;98809.09;5033841;28;20056;-62
2022/06/20 02:31:15;;;;;;;5.43;1.88;;;;;;;15.67;66.88;98814.53;5032067;28;20052;-61
2022/06/20 02:34:01;;;;;;;4.55;2.10;;;;;;;15.63;67.55;98787.13;5031988;28;20060;-61
2022/06/20 02:36:45;;;;;;;4.53;1.92;;;;;;;15.53;67.82;98760.38;5032817;28;20373;-62
2022/06/20 02:39:30;;;;;;;4.10;2.00;;;;;;;15.62;67.89;98759.28;5032518;28;20108;-66
2022/06/20 02:42:21;;;;;;;4.60;2.05;;;;;;;15.71;67.54;98762.75;5032751;28;20056;-61
2022/06/20 02:45:10;;;;;;;2.30;1.83;;;;;;;15.69;67.90;98753.19;5033141;28;20049;-62
2022/06/20 02:48:01;;;;;;;3.65;1.67;;;;;;;15.74;67.85;98743.47;5033062;28;20048;-61
2022/06/20 02:50:50;;;;;;;2.58;1.60;;;;;;;15.77;67.78;98726.09;5032238;28;20044;-62
2022/06/20 02:53:42;;;;;;;6.03;2.13;;;;;;;15.83;67.15;98728.03;5033199;28;20044;-62
2022/06/20 02:56:31;;;;;;;3.92;1.98;;;;;;;15.84;67.64;98745.91;5032526;28;20041;-62
2022/06/20 02:59:26;;;;;;;3.97;2.10;;;;;;;15.87;67.25;98769.84;5032420;28;20209;-61
2022/06/20 03:02:13;;;;;;;3.67;2.00;;;;;;;15.87;67.27;98796.81;5033023;28;20044;-61
2022/06/20 03:04:57;;;;;;;2.53;1.77;;;;;;;15.87;66.95;98793.31;5032173;28;20044;-61
2022/06/20 03:07:43;;;;;;;3.85;2.20;;;;;;;15.77;66.77;98750.38;5033107;28;20044;-62
2022/06/20 03:10:49;;;;;;;6.25;2.22;;;;;;;15.92;67.05;98745.03;5032402;28;20260;-67
2022/06/20 03:13:36;;;;;;;5.40;2.20;;;;;;;15.84;66.79;98701.91;5045392;28;20080;-65
2022/06/20 03:16:21;;;;;;;3.85;2.25;;;;;;;16.00;66.46;98706.31;5032940;28;20044;-61
2022/06/20 03:19:12;;;;;;;5.80;1.92;;;;;;;16.00;66.42;98703.59;5031797;28;20043;-61
2022/06/20 03:21:59;;;;;;;5.85;2.25;;;;;;;16.30;65.35;98733.28;5032011;28;20079;-61
2022/06/20 03:24:45;;;;;;;7.38;2.20;;;;;;;16.19;64.97;98740.84;5032392;28;20503;-64
2022/06/20 03:27:33;;;;;;;3.53;1.90;;;;;;;16.38;65.18;98760.19;5031248;28;20044;-62
2022/06/20 03:30:25;;;;;;;4.15;1.80;;;;;;;16.33;64.98;98746.41;5030739;28;20048;-63
2022/06/20 03:33:13;;;;;;;4.20;1.92;;;;;;;16.23;65.29;98732.38;5032236;28;20048;-62
2022/06/20 03:36:03;;;;;;;3.25;1.90;;;;;;;16.23;65.27;98744.00;5032283;28;20059;-62
2022/06/20 03:38:49;;;;;;;6.28;1.98;;;;;;;16.12;65.65;98753.41;5031306;28;20103;-62
2022/06/20 03:41:34;;;;;;;4.95;2.15;;;;;;;16.09;66.03;98761.88;5032071;28;20075;-62
2022/06/20 03:44:29;;;;;;;3.92;1.95;;;;;;;16.20;66.20;98760.56;5032273;28;20094;-62
2022/06/20 03:47:21;;;;;;;3.55;1.90;;;;;;;16.17;65.74;98751.00;5030494;28;20053;-68
2022/06/20 03:50:18;;;;;;;3.60;1.65;;;;;;;16.16;65.75;98752.03;5031572;28;20080;-60
2022/06/20 03:53:15;;;;;;;5.68;1.73;;;;;;;16.34;65.02;98791.28;5032064;28;20397;-62
2022/06/20 03:56:06;;;;;;;4.57;2.03;;;;;;;16.34;65.14;98815.59;5031806;28;20448;-62
2022/06/20 03:58:58;;;;;;;6.47;2.35;;;;;;;16.31;65.57;98824.94;5030516;28;20459;-61
2022/06/20 04:01:49;;;;;;;3.25;1.90;;;;;;;16.26;65.46;98737.38;5031470;28;20437;-62
2022/06/20 04:04:48;;;;;;;7.78;2.30;;;;;;;16.20;65.40;98723.63;5031836;28;20422;-62
2022/06/20 04:07:41;;;;;;;5.80;2.40;;;;;;;16.23;65.16;98741.28;5029749;28;20098;-61
2022/06/20 04:13:57;;;;;;;4.28;1.95;;;;;;;16.47;64.17;98736.59;5032440;28;20166;-67
2022/06/20 04:16:50;;;;;;;3.53;2.33;;;;;;;16.61;64.27;98770.03;5031619;28;20055;-61
2022/06/20 04:19:39;;;;;;;8.65;2.33;;;;;;;16.75;63.69;98769.16;5030885;28;20164;-63
2022/06/20 04:22:33;;;;;;;4.82;2.15;;;;;;;16.98;62.78;98767.31;5031333;28;20045;-63
2022/06/20 04:25:45;;;;;;;2.67;2.08;;;;;;;17.16;62.00;98721.78;5030152;28;20112;-62
2022/06/20 04:28:37;;;;;;;5.40;2.17;;;;;;;17.28;61.44;98734.81;5030324;28;20067;-62
2022/06/20 04:31:35;;;;;;;2.85;2.25;;;;;;;17.42;60.86;98752.81;5030732;28;20052;-62
2022/06/20 04:34:41;;;;;;;4.47;1.98;;;;;;;17.57;60.66;98755.41;5030391;28;20106;-62
2022/06/20 04:37:38;;;;;;;4.53;2.10;;;;;;;17.58;60.26;98784.16;5030115;28;20044;-62
2022/06/20 04:40:30;;;;;;;3.10;1.90;;;;;;;17.49;60.46;98772.66;5030712;28;20084;-63
2022/06/20 04:43:52;;;;;;;6.82;1.95;;;;;;;17.66;60.70;98783.19;5031073;28;20564;-63
2022/06/20 04:46:47;;;;;;;4.25;1.98;;;;;;;17.73;59.68;98764.28;5030603;28;20397;-61
2022/06/20 04:49:33;;;;;;;4.82;1.83;;;;;;;17.74;58.15;98741.59;5030244;28;20167;-61
2022/06/20 04:52:21;;;;;;;3.45;1.83;;;;;;;17.96;57.79;98741.53;5030801;28;20091;-64
2022/06/20 04:55:06;;;;;;;3.97;1.90;;;;;;;18.01;57.63;98741.78;5030586;28;20148;-65
2022/06/20 04:57:52;;;;;;;4.40;2.00;;;;;;;18.14;57.57;98750.03;5030125;28;20187;-62
2022/06/20 05:00:42;;;;;;;4.03;1.75;;;;;;;18.44;57.12;98760.59;5030619;28;20098;-63
2022/06/20 05:03:32;;;;;;;3.83;1.92;;;;;;;18.77;56.18;98748.22;5030575;28;20098;-61
2022/06/20 05:06:21;;;;;;;2.60;2.13;;;;;;;19.10;55.19;98749.34;5030634;28;20400;-61
2022/06/20 05:09:14;;;;;;;4.75;2.08;;;;;;;19.32;54.08;98760.84;5030389;28;20488;-61
2022/06/20 05:12:07;;;;;;;3.95;1.67;;;;;;;19.47;53.56;98768.78;5031573;28;20087;-62
2022/06/20 05:15:20;;;;;;;2.97;1.95;;;;;;;19.35;53.96;98745.00;5033615;28;20436;-62
2022/06/20 05:18:36;;;;;;;6.50;1.70;;;;;;;19.26;54.87;98773.38;5031666;28;20056;-61
2022/06/20 05:21:27;;;;;;;3.83;1.92;;;;;;;18.97;54.78;98772.66;5034642;28;20037;-63
2022/06/20 05:24:16;;;;;;;4.90;1.95;;;;;;;18.90;54.40;98788.09;5033858;28;20044;-62
2022/06/20 05:27:11;;;;;;;5.22;1.90;;;;;;;19.10;55.06;98771.06;5033995;28;20044;-64
2022/06/20 05:30:01;;;;;;;4.50;2.00;;;;;;;19.21;54.43;98782.16;5034787;28;20091;-63
2022/06/20 05:32:56;;;;;;;4.10;2.10;;;;;;;19.32;53.64;98783.41;5034484;28;20040;-61
2022/06/20 05:35:58;;;;;;;5.88;1.63;;;;;;;19.34;53.98;98802.19;5033564;28;20116;-62
2022/06/20 05:38:44;;;;;;;2.70;1.55;;;;;;;19.19;54.06;98816.78;5034232;28;20120;-61
2022/06/20 05:41:14;;;;;;;4.28;1.73;;;;;;;18.88;54.28;98820.00;5032767;28;20457;-62
2022/06/20 05:43:39;;;;;;;2.90;1.92;;;;;;;18.59;54.55;98841.75;5033890;28;20529;-64
2022/06/20 05:46:10;;;;;;;5.53;1.85;;;;;;;18.44;55.25;98862.72;5033358;28;20114;-61
2022/06/20 05:48:50;;;;;;;4.80;1.98;;;;;;;18.42;56.05;98857.50;5034336;28;20052;-62
2022/06/20 05:51:19;;;;;;;4.32;1.88;;;;;;;18.19;56.06;98861.31;5034067;28;20029;-63
2022/06/20 05:53:54;;;;;;;2.88;1.70;;;;;;;18.12;56.60;98860.44;5033625;28;20030;-61
2022/06/20 05:56:28;;;;;;;4.00;1.80;;;;;;;18.06;56.91;98861.22;5032236;28;20030;-61
2022/06/20 05:58:55;;;;;;;4.22;2.05;;;;;;;17.94;56.94;98841.91;5033436;28;20076;-61
2022/06/20 06:01:30;;;;;;;5.93;2.10;;;;;;;18.02;56.19;98855.38;5034011;28;20123;-62
2022/06/20 06:04:06;;;;;;;3.03;1.88;;;;;;;18.16;56.41;98850.88;5033330;28;20021;-62
2022/06/20 06:06:42;;;;;;;4.15;2.00;;;;;;;18.07;56.59;98857.47;5032485;28;20036;-62
2022/06/20 06:09:19;;;;;;;9.93;2.13;;;;;;;18.02;56.49;98844.53;5049242;28;20079;-61
2022/06/20 06:12:03;;;;;;;3.45;2.00;;;;;;;18.20;56.06;98835.91;5033394;28;20029;-62
2022/06/20 06:14:37;;;;;;;5.30;2.22;;;;;;;18.46;56.04;98850.66;5032585;28;20430;-61
2022/06/20 06:17:14;;;;;;;4.88;2.38;;;;;;;18.84;54.85;98838.53;5033441;28;20117;-61
2022/06/20 06:19:49;;;;;;;5.35;1.80;;;;;;;19.28;53.62;98830.97;5033387;28;20053;-63
2022/06/20 06:22:26;;;;;;;3.63;1.90;;;;;;;19.75;52.28;98820.19;5031030;28;20060;-62
2022/06/20 06:24:58;;;;;;;4.85;2.03;;;;;;;20.34;50.59;98822.25;5032210;28;20056;-63
2022/06/20 06:27:29;;;;;;;5.82;2.13;;;;;;;21.28;48.28;98827.34;5032981;28;20098;-62
2022/06/20 06:30:01;;;;;;;5.95;2.17;;;;;;;22.35;45.57;98809.31;5033138;28;20485;-62
2022/06/20 06:32:41;;;;;;;4.60;2.53;;;;;;;24.19;41.92;98799.19;5032416;28;20079;-63
2022/06/20 06:35:06;;;;;;;7.25;1.83;;;;;;;24.70;39.30;98792.31;5032541;28;20101;-62
2022/06/20 06:37:41;;;;;;;4.90;1.88;;;;;;;25.25;39.80;98803.81;5033231;28;20389;-63
2022/06/20 06:40:23;;;;;;;3.25;1.90;;;;;;;26.32;36.92;98809.44;5032950;28;20037;-63
2022/06/20 06:42:50;;;;;;;4.78;1.65;;;;;;;26.53;34.79;98800.66;5032562;28;20033;-63
2022/06/20 06:45:21;;;;;;;5.18;1.80;;;;;;;28.19;32.56;98803.97;5032374;28;20023;-62
2022/06/20 06:47:56;;;;;;;2.80;1.60;;;;;;;30.26;29.43;98800.88;5032443;28;20037;-61
2022/06/20 06:50:47;;;;;;;3.30;1.50;;;;;;;31.41;27.89;98809.53;5033382;28;20037;-61
2022/06/20 06:53:30;;;;;;;3.72;1.65;;;;;;;33.05;23.82;98795.16;5032790;28;20500;-61
2022/06/20 06:56:28;;;;;;;2.92;1.67;;;;;;;36.33;21.94;98809.69;5032542;28;20124;-62
2022/06/20 06:59:04;;;;;;;4.25;1.42;;;;;;;37.67;18.95;98809.63;5029304;28;20052;-62
2022/06/20 07:01:38;;;;;;;4.53;1.30;;;;;;;38.10;18.93;98814.31;5032714;28;20514;-63
2022/06/20 07:04:36;;;;;;;3.97;1.80;;;;;;;39.71;19.07;98822.28;5031588;28;20465;-62
2022/06/20 07:07:42;;;;;;;3.67;1.70;;;;;;;41.46;17.11;98824.84;5033132;28;20087;-62
2022/06/20 07:10:25;;;;;;;4.65;1.70;;;;;;;43.47;13.95;98806.13;5032195;28;20033;-63
2022/06/20 07:12:58;;;;;;;2.90;1.67;;;;;;;45.05;11.22;98834.69;5032632;28;20088;-64
2022/06/20 07:15:24;;;;;;;2.40;1.73;;;;;;;46.00;10.24;98820.53;5033086;28;20067;-63
2022/06/20 07:18:02;;;;;;;4.10;1.55;;;;;;;47.43;11.27;98824.00;5032334;28;20524;-62
2022/06/20 07:20:35;;;;;;;5.32;1.63;;;;;;;47.00;9.81;98823.78;5032418;28;20532;-63
2022/06/20 07:23:03;;;;;;;5.80;1.90;;;;;;;47.28;9.24;98825.97;5032423;28;20116;-63
2022/06/20 07:25:35;;;;;;;4.65;2.08;;;;;;;47.82;8.93;98831.03;5032306;28;20121;-63
2022/06/20 07:28:05;;;;;;;2.85;1.83;;;;;;;48.02;8.77;98822.13;5031086;28;20442;-62
2022/06/20 07:30:38;;;;;;;9.05;2.85;;;;;;;48.56;8.08;98824.22;5030838;28;20025;-63
2022/06/20 07:33:13;;;;;;;5.97;1.90;;;;;;;49.75;8.45;98825.88;5032346;28;20481;-62
2022/06/20 07:35:47;;;;;;;4.60;1.70;;;;;;;49.90;7.71;98835.16;5031887;28;20038;-63
2022/06/20 07:38:25;;;;;;;5.90;1.90;;;;;;;50.50;8.04;98823.72;5031002;28;20390;-63
2022/06/20 07:41:28;;;;;;;2.80;2.17;;;;;;;51.47;7.87;98805.97;5031969;28;20133;-62
2022/06/20 07:44:03;;;;;;;2.38;1.65;;;;;;;51.45;6.54;98815.00;4999790;28;20070;-64
2022/06/20 07:46:35;;;;;;;2.63;2.00;;;;;;;51.74;6.18;98820.31;5012659;28;20038;-64
2022/06/20 07:49:08;;;;;;;5.82;2.20;;;;;;;51.47;6.48;98814.53;5012357;28;20049;-62
2022/06/20 07:51:40;;;;;;;4.78;2.08;;;;;;;51.25;6.34;98812.78;5031415;28;20025;-62
2022/06/20 07:54:16;;;;;;;3.85;2.15;;;;;;;50.43;7.22;98831.53;5031906;28;20049;-64
2022/06/20 07:56:52;;;;;;;2.03;1.70;;;;;;;50.05;7.16;98818.78;5031068;28;20029;-62
2022/06/20 07:59:27;;;;;;;3.33;1.65;;;;;;;49.37;7.38;98819.97;5031166;28;20826;-63
2022/06/20 08:02:04;;;;;;;3.10;1.98;;;;;;;47.12;8.61;98803.59;5030516;28;20040;-63
2022/06/20 08:04:35;;;;;;;3.75;1.70;;;;;;;46.77;8.69;98829.66;5031082;28;20108;-62
2022/06/20 08:07:17;;;;;;;3.47;1.73;;;;;;;46.79;8.59;98824.44;5011542;28;20104;-63
2022/06/20 08:09:48;;;;;;;4.95;1.67;;;;;;;46.89;8.43;98820.88;5011228;28;20508;-63
2022/06/20 08:12:20;;;;;;;4.00;1.75;;;;;;;47.53;8.22;98842.25;5011480;28;20191;-62
2022/06/20 08:15:06;;;;;;;3.92;1.60;;;;;;;48.21;8.31;98825.81;5016067;28;20029;-63
2022/06/20 08:17:33;;;;;;;2.83;1.58;;;;;;;47.40;8.00;98821.16;5031052;28;20032;-62
2022/06/20 08:19:59;;;;;;;2.38;1.58;;;;;;;46.24;8.37;98818.34;5031390;28;20393;-64
2022/06/20 08:22:27;;;;;;;3.13;1.52;;;;;;;44.84;9.67;98809.75;5031448;28;20167;-62
2022/06/20 08:25:18;;;;;;;3.45;1.40;;;;;;;43.38;11.18;98819.59;5029609;28;20041;-63
2022/06/20 08:27:49;;;;;;;2.88;1.13;;;;;;;40.26;12.54;98833.41;5030846;28;20040;-63
2022/06/20 08:30:18;;;;;;;3.80;1.40;;;;;;;38.01;14.33;98824.72;5030235;28;20108;-62
2022/06/20 08:32:53;;;;;;;3.20;1.30;;;;;;;36.64;15.88;98825.56;5031084;28;20036;-64
2022/06/20 08:35:32;;;;;;;3.50;1.15;;;;;;;35.60;16.57;98821.84;5030879;28;20052;-64
2022/06/20 08:38:07;;;;;;;6.85;1.35;;;;;;;34.36;18.45;98816.94;5031000;28;20466;-62
2022/06/20 08:41:06;;;;;;;3.63;1.45;;;;;;;33.98;18.68;98814.28;5031135;28;20059;-63
2022/06/20 08:44:09;;;;;;;2.85;1.00;;;;;;;33.33;18.60;98834.16;5031180;28;20397;-63
2022/06/20 08:46:50;;;;;;;2.65;1.20;;;;;;;32.53;19.50;98817.13;5011799;28;20072;-63
2022/06/20 08:49:35;;;;;;;3.47;1.10;;;;;;;32.38;19.33;98832.00;5025824;28;20048;-66
2022/06/20 08:52:38;;;;;;;3.72;1.13;;;;;;;31.85;19.50;98830.81;5031320;28;20038;-64
2022/06/20 08:55:31;;;;;;;4.35;1.00;;;;;;;31.00;20.23;98828.00;5029290;28;20037;-64
2022/06/20 08:58:25;;;;;;;7.10;1.50;;;;;;;30.23;20.60;98826.28;5030627;28;20452;-63
2022/06/20 09:01:08;;;;;;;6.57;1.10;;;;;;;29.81;21.49;98811.69;5030944;28;20099;-64
2022/06/20 09:03:37;;;;;;;2.40;1.20;;;;;;;29.30;22.05;98810.50;5031056;28;20470;-65
2022/06/20 09:06:30;;;;;;;4.05;1.10;;;;;;;29.43;21.58;98809.19;5030225;28;20033;-65
2022/06/20 09:09:05;;;;;;;7.75;1.30;;;;;;;28.78;22.81;98821.38;5030692;28;20043;-64
2022/06/20 09:11:49;;;;;;;3.83;1.00;;;;;;;28.24;23.42;98821.63;5031454;28;20040;-62
2022/06/20 09:14:17;;;;;;;6.55;1.35;;;;;;;28.25;24.49;98824.09;5030388;28;20362;-62
2022/06/20 09:16:49;;;;;;;6.38;1.08;;;;;;;28.38;22.66;98824.75;5030207;28;20382;-63
2022/06/20 09:19:32;;;;;;;5.20;1.15;;;;;;;28.69;22.42;98839.47;5030871;28;20124;-64
2022/06/20 09:22:06;;;;;;;2.58;1.02;;;;;;;28.84;22.83;98840.69;5030919;28;20041;-62
2022/06/20 09:24:52;;;;;;;4.05;1.13;;;;;;;28.76;23.25;98826.31;5030390;28;20044;-62
2022/06/20 09:27:17;;;;;;;4.35;1.15;;;;;;;28.35;23.36;98834.34;5030427;28;20029;-63
2022/06/20 09:30:01;;;;;;;4.38;1.17;;;;;;;28.35;23.87;98835.19;5030365;28;20044;-64
2022/06/20 09:32:49;;;;;;;5.10;1.00;;;;;;;27.65;23.93;98838.75;5030498;28;20034;-63
2022/06/20 09:35:43;;;;;;;4.72;1.33;;;;;;;27.52;24.39;98817.19;5028906;28;20033;-62
2022/06/20 09:38:27;;;;;;;3.65;1.08;;;;;;;27.58;23.93;98821.66;5030762;28;20025;-62
2022/06/20 09:41:05;;;;;;;6.68;1.40;;;;;;;27.62;24.16;98822.78;5030304;28;20037;-63
2022/06/20 09:43:39;;;;;;;7.45;1.40;;;;;;;27.66;23.83;98823.09;5030722;28;20042;-64
2022/06/20 09:46:16;;;;;;;3.78;1.40;;;;;;;27.59;23.93;98811.47;5029792;28;20079;-64
2022/06/20 09:48:49;;;;;;;2.22;0.95;;;;;;;27.18;24.26;98823.72;5030605;28;20033;-63
2022/06/20 09:51:39;;;;;;;5.32;1.17;;;;;;;26.87;24.59;98828.84;5029140;28;20026;-63
2022/06/20 09:54:16;;;;;;;2.42;1.00;;;;;;;26.83;24.17;98826.84;5030228;28;20041;-69
2022/06/20 09:56:52;;;;;;;3.67;1.20;;;;;;;26.71;24.34;98816.81;5029919;28;20034;-64
2022/06/20 09:59:32;;;;;;;7.75;1.63;;;;;;;26.53;25.40;98820.69;5030523;28;20136;-64
2022/06/20 10:02:05;;;;;;;3.97;1.15;;;;;;;25.90;26.15;98838.13;5032251;28;20061;-62
2022/06/20 10:04:50;;;;;;;2.50;1.40;;;;;;;25.25;27.22;98807.38;5034390;28;20108;-63
2022/06/20 10:07:40;;;;;;;2.75;1.10;;;;;;;25.49;26.69;98838.28;5033990;28;20372;-63
2022/06/20 10:10:24;;;;;;;2.25;1.30;;;;;;;25.63;26.73;98833.31;5033913;28;20038;-66
2022/06/20 10:12:49;;;;;;;7.03;1.88;;;;;;;25.65;26.21;98822.91;5033715;28;20064;-63
2022/06/20 10:15:22;;;;;;;7.80;4.32;;;;;;;25.87;25.62;98821.34;5033458;28;20061;-62
2022/06/20 10:18:04;;;;;;;8.90;3.53;;;;;;;26.15;25.78;98828.63;5032957;28;20037;-63
2022/06/20 10:20:42;;;;;;;4.57;1.60;;;;;;;26.42;25.21;98841.69;5033512;28;20033;-62
2022/06/20 10:23:42;;;;;;;2.00;1.08;;;;;;;26.69;24.92;98838.19;5033039;28;20087;-63
2022/06/20 10:26:13;;;;;;;4.35;1.25;;;;;;;26.49;25.35;98833.28;5033392;28;20033;-64
2022/06/20 10:28:57;;;;;;;1.48;1.00;;;;;;;26.68;25.15;98832.97;5033360;28;20044;-63
2022/06/20 10:31:41;;;;;;;4.80;1.20;;;;;;;26.48;25.74;98848.06;5032925;28;20044;-62
2022/06/20 10:34:28;;;;;;;2.40;1.10;;;;;;;26.46;25.70;98845.56;5033445;28;20116;-66
2022/06/20 10:37:15;;;;;;;4.20;1.25;;;;;;;26.32;26.15;98836.88;5033203;28;20485;-63
2022/06/20 10:40:15;;;;;;;3.85;1.15;;;;;;;26.39;26.03;98839.44;5032497;28;20061;-63
2022/06/20 10:42:58;;;;;;;3.80;1.27;;;;;;;26.10;26.56;98834.06;5017144;28;20041;-62
2022/06/20 10:45:45;;;;;;;4.22;1.10;;;;;;;25.69;27.20;98836.97;5033105;28;20451;-63
2022/06/20 10:48:13;;;;;;;3.67;1.15;;;;;;;25.35;28.02;98840.47;5032659;28;20407;-63
2022/06/20 10:50:44;;;;;;;4.72;1.25;;;;;;;24.97;27.93;98841.09;5033198;28;20041;-63
2022/06/20 10:53:30;;;;;;;5.20;1.10;;;;;;;24.77;28.85;98843.13;5033074;28;20062;-62
2022/06/20 10:56:05;;;;;;;;;;;;;;;25.20;28.03;98843.75;5033560;28;20041;-63
2022/06/20 10:58:52;;;;;;;3.90;1.20;;;;;;;24.83;28.53;98840.50;5032878;28;19917;-63
2022/06/20 11:01:35;;;;;;;4.00;1.35;;;;;;;24.51;28.55;98828.06;5032453;28;20081;-63
2022/06/20 11:04:33;;;;;;;2.85;0.93;;;;;;;24.85;28.46;98836.47;5032676;28;20087;-63
2022/06/20 11:07:10;;;;;;;2.90;1.20;;;;;;;25.16;27.67;98828.03;5032711;28;20164;-63
2022/06/20 11:09:48;;;;;;;4.00;1.25;;;;;;;25.51;27.32;98818.81;5032931;28;20033;-62
2022/06/20 11:12:38;;;;;;;5.85;1.20;;;;;;;25.87;27.25;98819.44;5031645;28;20073;-65
2022/06/20 11:15:19;;;;;;;6.80;1.80;;;;;;;25.89;27.32;98810.94;5032695;28;20034;-62
2022/06/20 11:17:51;;;;;;;8.48;1.45;;;;;;;25.87;27.13;98810.38;5047449;28;20338;-63
2022/06/20 11:20:37;;;;;;;3.58;1.75;;;;;;;25.83;28.38;98801.84;5032052;28;20434;-63
2022/06/20 11:23:20;;;;;;;2.55;1.10;;;;;;;26.13;27.45;98814.34;5031922;28;20402;-63
2022/06/20 11:26:07;;;;;;;2.40;1.40;;;;;;;26.17;27.10;98809.22;5032192;28;20176;-63
2022/06/20 11:28:47;;;;;;;4.57;1.10;;;;;;;26.08;28.16;98806.06;5047198;28;20120;-63
2022/06/20 11:31:45;;;;;;;3.97;1.33;;;;;;;26.32;26.95;98816.84;5031973;28;20117;-63
2022/06/20 11:34:27;;;;;;;3.72;1.75;;;;;;;26.05;26.84;98812.03;5032432;28;20394;-67
2022/06/20 11:37:01;;;;;;;3.53;1.17;;;;;;;25.72;27.92;98789.88;5030988;28;20029;-62
2022/06/20 11:40:00;;;;;;;3.33;1.25;;;;;;;25.79;27.06;98801.50;5031771;28;20493;-63
2022/06/20 11:42:50;;;;;;;3.20;1.40;;;;;;;25.40;27.91;98815.03;5031173;28;20389;-63
2022/06/20 11:45:15;;;;;;;4.70;1.27;;;;;;;25.07;28.52;98802.94;5031998;28;20045;-65
2022/06/20 11:47:59;;;;;;;2.63;1.30;;;;;;;25.13;28.24;98817.56;5031881;28;20030;-69
2022/06/20 11:50:39;;;;;;;3.47;1.30;;;;;;;24.99;28.44;98814.28;5030273;28;20041;-65
2022/06/20 11:53:05;;;;;;;3.47;1.50;;;;;;;24.84;29.15;98820.25;5030870;28;20465;-63
2022/06/20 11:55:41;;;;;;;5.55;1.50;;;;;;;24.92;29.31;98811.69;5030897;28;20033;-63
2022/06/20 11:58:33;;;;;;;2.78;1.48;;;;;;;25.18;28.63;98814.91;5032411;28;20489;-63
2022/06/20 12:01:06;;;;;;;5.07;1.73;;;;;;;25.15;29.24;98816.22;5027055;28;20042;-64
2022/06/20 12:03:44;;;;;;;3.42;1.40;;;;;;;25.30;28.99;98812.13;5027467;28;20413;-64
2022/06/20 12:06:21;;;;;;;3.13;1.58;;;;;;;24.75;29.32;98793.28;5014482;28;20037;-63
2022/06/20 12:09:05;;;;;;;7.15;1.50;;;;;;;24.68;29.50;98813.63;5031346;28;20033;-63
2022/06/20 12:11:31;;;;;;;4.60;1.55;;;;;;;24.29;30.09;98815.00;5031202;28;20033;-63
2022/06/20 12:14:05;;;;;;;2.83;1.00;;;;;;;24.20;30.01;98803.59;5030095;28;20047;-63
2022/06/20 12:16:40;;;;;;;5.85;1.25;;;;;;;23.95;30.55;98809.25;5030460;28;20069;-64
2022/06/20 12:25:05;;;;;;;3.97;1.00;;;;;;;23.90;31.21;98817.34;5030966;28;20065;-63
2022/06/20 12:27:30;;;;;;;2.85;1.08;;;;;;;23.64;31.72;98819.44;5030137;28;20167;-64
2022/06/20 12:29:56;;;;;;;3.22;1.50;;;;;;;23.54;32.20;98830.94;5030149;28;20113;-64
2022/06/20 12:32:29;;;;;;;3.45;1.35;;;;;;;23.69;31.41;98837.88;5031298;28;20030;-63
2022/06/20 12:35:15;;;;;;;5.00;1.70;;;;;;;23.94;30.92;98833.03;5031553;28;20037;-62
2022/06/20 12:37:48;;;;;;;2.97;1.45;;;;;;;24.00;30.91;98831.28;5031419;28;20040;-63
2022/06/20 12:40:36;;;;;;;3.17;1.45;;;;;;;24.23;30.48;98835.09;5030001;28;20034;-69
2022/06/20 12:43:26;;;;;;;4.10;1.70;;;;;;;24.24;30.79;98831.31;5031072;28;20029;-64
2022/06/20 12:46:10;;;;;;;3.35;1.60;;;;;;;24.02;31.41;98833.78;5030180;28;20469;-64
2022/06/20 12:48:54;;;;;;;6.13;2.08;;;;;;;24.08;31.30;98836.41;5046133;28;20171;-64
2022/06/20 12:51:32;;;;;;;6.18;1.65;;;;;;;24.34;31.27;98847.09;5030828;28;20049;-64
2022/06/20 12:54:16;;;;;;;7.50;2.00;;;;;;;24.55;30.54;98853.88;5031400;28;20029;-63
2022/06/20 12:56:51;;;;;;;4.75;1.52;;;;;;;24.41;30.83;98856.03;5029908;28;20036;-63